sensor_id;sensor_type;location;lat;lon;timestamp;P1;durP1;ratioP1;P2;durP2;ratioP2
56670;SDS011;42545;50.054;8.306;2023-07-29T00:00:41;0.50;;;0.50;;
56670;SDS011;42545;50.054;8.306;2023-07-29T00:03:08;0.73;;;0.73;;
56670;SDS011;42545;50.054;8.306;2023-07-29T00:05:34;0.50;;;0.50;;
56670;SDS011;42545;50.054;8.306;2023-07-29T00:08:01;0.40;;;0.40;;
56670;SDS011;42545;50.054;8.306;2023-07-29T00:10:30;0.88;;;0.88;;
56670;SDS011;42545;50.054;8.306;2023-07-29T00:12:57;0.60;;;0.60;;
56670;SDS011;42545;50.054;8.306;2023-07-29T00:15:24;0.70;;;0.70;;
56670;SDS011;42545;50.054;8.306;2023-07-29T00:17:51;0.68;;;0.68;;
56670;SDS011;42545;50.054;8.306;2023-07-29T00:20:18;0.60;;;0.60;;
56670;SDS011;42545;50.054;8.306;2023-07-29T00:22:46;0.60;;;0.60;;
56670;SDS011;42545;50.054;8.306;2023-07-29T00:25:14;0.52;;;0.52;;
56670;SDS011;42545;50.054;8.306;2023-07-29T00:27:43;0.55;;;0.55;;
56670;SDS011;42545;50.054;8.306;2023-07-29T00:30:10;0.65;;;0.65;;
56670;SDS011;42545;50.054;8.306;2023-07-29T00:32:37;0.60;;;0.60;;
56670;SDS011;42545;50.054;8.306;2023-07-29T00:35:05;0.50;;;0.50;;
56670;SDS011;42545;50.054;8.306;2023-07-29T00:37:32;0.80;;;0.80;;
56670;SDS011;42545;50.054;8.306;2023-07-29T00:39:59;0.80;;;0.80;;
56670;SDS011;42545;50.054;8.306;2023-07-29T00:42:26;0.60;;;0.60;;
56670;SDS011;42545;50.054;8.306;2023-07-29T00:44:54;0.70;;;0.70;;
56670;SDS011;42545;50.054;8.306;2023-07-29T00:47:21;0.57;;;0.57;;
56670;SDS011;42545;50.054;8.306;2023-07-29T00:49:51;0.82;;;0.70;;
56670;SDS011;42545;50.054;8.306;2023-07-29T00:52:18;0.60;;;0.60;;
56670;SDS011;42545;50.054;8.306;2023-07-29T00:54:45;0.57;;;0.57;;
56670;SDS011;42545;50.054;8.306;2023-07-29T00:57:12;0.50;;;0.50;;
56670;SDS011;42545;50.054;8.306;2023-07-29T00:59:41;0.50;;;0.50;;
56670;SDS011;42545;50.054;8.306;2023-07-29T01:02:10;0.60;;;0.60;;
56670;SDS011;42545;50.054;8.306;2023-07-29T01:07:07;0.52;;;0.52;;
56670;SDS011;42545;50.054;8.306;2023-07-29T01:09:43;0.60;;;0.60;;
56670;SDS011;42545;50.054;8.306;2023-07-29T01:12:21;0.80;;;0.80;;
56670;SDS011;42545;50.054;8.306;2023-07-29T01:14:55;0.50;;;0.50;;
56670;SDS011;42545;50.054;8.306;2023-07-29T01:17:30;0.40;;;0.40;;
56670;SDS011;42545;50.054;8.306;2023-07-29T01:20:01;0.45;;;0.45;;
56670;SDS011;42545;50.054;8.306;2023-07-29T01:22:33;0.50;;;0.50;;
56670;SDS011;42545;50.054;8.306;2023-07-29T01:25:03;0.70;;;0.57;;
56670;SDS011;42545;50.054;8.306;2023-07-29T01:27:31;0.60;;;0.60;;
56670;SDS011;42545;50.054;8.306;2023-07-29T01:29:58;0.60;;;0.60;;
56670;SDS011;42545;50.054;8.306;2023-07-29T01:32:27;0.52;;;0.52;;
56670;SDS011;42545;50.054;8.306;2023-07-29T01:35:00;0.50;;;0.50;;
56670;SDS011;42545;50.054;8.306;2023-07-29T01:37:33;0.50;;;0.50;;
56670;SDS011;42545;50.054;8.306;2023-07-29T01:40:03;0.50;;;0.50;;
56670;SDS011;42545;50.054;8.306;2023-07-29T01:42:31;0.50;;;0.47;;
56670;SDS011;42545;50.054;8.306;2023-07-29T01:44:58;0.50;;;0.50;;
56670;SDS011;42545;50.054;8.306;2023-07-29T01:47:26;0.40;;;0.40;;
56670;SDS011;42545;50.054;8.306;2023-07-29T01:49:53;0.40;;;0.40;;
56670;SDS011;42545;50.054;8.306;2023-07-29T01:52:20;0.47;;;0.47;;
56670;SDS011;42545;50.054;8.306;2023-07-29T01:54:47;0.50;;;0.50;;
56670;SDS011;42545;50.054;8.306;2023-07-29T01:57:16;0.40;;;0.40;;
56670;SDS011;42545;50.054;8.306;2023-07-29T01:59:42;0.60;;;0.60;;
56670;SDS011;42545;50.054;8.306;2023-07-29T02:02:09;0.45;;;0.45;;
56670;SDS011;42545;50.054;8.306;2023-07-29T02:04:36;0.57;;;0.57;;
56670;SDS011;42545;50.054;8.306;2023-07-29T02:07:03;0.60;;;0.60;;
56670;SDS011;42545;50.054;8.306;2023-07-29T02:09:30;0.60;;;0.60;;
56670;SDS011;42545;50.054;8.306;2023-07-29T02:11:57;0.70;;;0.70;;
56670;SDS011;42545;50.054;8.306;2023-07-29T02:14:26;0.75;;;0.75;;
56670;SDS011;42545;50.054;8.306;2023-07-29T02:16:52;0.80;;;0.80;;
56670;SDS011;42545;50.054;8.306;2023-07-29T02:19:19;0.80;;;0.80;;
56670;SDS011;42545;50.054;8.306;2023-07-29T02:21:46;0.63;;;0.63;;
56670;SDS011;42545;50.054;8.306;2023-07-29T02:24:13;0.90;;;0.80;;
56670;SDS011;42545;50.054;8.306;2023-07-29T02:26:40;0.70;;;0.70;;
56670;SDS011;42545;50.054;8.306;2023-07-29T02:29:07;0.77;;;0.77;;
56670;SDS011;42545;50.054;8.306;2023-07-29T02:31:36;1.20;;;1.10;;
56670;SDS011;42545;50.054;8.306;2023-07-29T02:34:03;1.42;;;1.33;;
56670;SDS011;42545;50.054;8.306;2023-07-29T02:36:30;1.60;;;1.50;;
56670;SDS011;42545;50.054;8.306;2023-07-29T02:38:57;1.30;;;1.20;;
56670;SDS011;42545;50.054;8.306;2023-07-29T02:41:24;1.10;;;1.00;;
56670;SDS011;42545;50.054;8.306;2023-07-29T02:43:50;1.10;;;1.00;;
56670;SDS011;42545;50.054;8.306;2023-07-29T02:46:17;1.30;;;1.20;;
56670;SDS011;42545;50.054;8.306;2023-07-29T02:48:47;1.42;;;1.33;;
56670;SDS011;42545;50.054;8.306;2023-07-29T02:51:14;1.80;;;1.65;;
56670;SDS011;42545;50.054;8.306;2023-07-29T02:53:42;2.90;;;2.42;;
56670;SDS011;42545;50.054;8.306;2023-07-29T02:56:09;2.55;;;2.22;;
56670;SDS011;42545;50.054;8.306;2023-07-29T02:58:36;1.88;;;1.67;;
56670;SDS011;42545;50.054;8.306;2023-07-29T03:01:05;2.58;;;1.85;;
56670;SDS011;42545;50.054;8.306;2023-07-29T03:03:32;1.67;;;1.58;;
56670;SDS011;42545;50.054;8.306;2023-07-29T03:06:02;1.52;;;1.30;;
56670;SDS011;42545;50.054;8.306;2023-07-29T03:08:30;1.48;;;1.38;;
56670;SDS011;42545;50.054;8.306;2023-07-29T03:10:56;1.42;;;1.30;;
56670;SDS011;42545;50.054;8.306;2023-07-29T03:13:24;1.38;;;1.27;;
56670;SDS011;42545;50.054;8.306;2023-07-29T03:15:51;1.40;;;1.30;;
56670;SDS011;42545;50.054;8.306;2023-07-29T03:18:18;1.65;;;1.55;;
56670;SDS011;42545;50.054;8.306;2023-07-29T03:20:45;2.88;;;2.47;;
56670;SDS011;42545;50.054;8.306;2023-07-29T03:23:13;2.10;;;1.90;;
56670;SDS011;42545;50.054;8.306;2023-07-29T03:25:40;2.70;;;2.20;;
56670;SDS011;42545;50.054;8.306;2023-07-29T03:28:07;2.60;;;2.28;;
56670;SDS011;42545;50.054;8.306;2023-07-29T03:30:34;2.53;;;2.30;;
56670;SDS011;42545;50.054;8.306;2023-07-29T03:33:02;2.30;;;1.90;;
56670;SDS011;42545;50.054;8.306;2023-07-29T03:35:29;2.83;;;1.95;;
56670;SDS011;42545;50.054;8.306;2023-07-29T03:37:56;1.95;;;1.75;;
56670;SDS011;42545;50.054;8.306;2023-07-29T03:40:25;2.03;;;1.83;;
56670;SDS011;42545;50.054;8.306;2023-07-29T03:42:51;1.55;;;1.45;;
56670;SDS011;42545;50.054;8.306;2023-07-29T03:45:18;1.50;;;1.40;;
56670;SDS011;42545;50.054;8.306;2023-07-29T03:47:45;1.50;;;1.40;;
56670;SDS011;42545;50.054;8.306;2023-07-29T03:50:12;1.50;;;1.40;;
56670;SDS011;42545;50.054;8.306;2023-07-29T03:52:39;1.20;;;1.10;;
56670;SDS011;42545;50.054;8.306;2023-07-29T03:55:06;1.88;;;1.60;;
56670;SDS011;42545;50.054;8.306;2023-07-29T03:57:36;1.40;;;1.30;;
56670;SDS011;42545;50.054;8.306;2023-07-29T04:00:03;1.30;;;1.20;;
56670;SDS011;42545;50.054;8.306;2023-07-29T04:02:31;1.35;;;1.02;;
56670;SDS011;42545;50.054;8.306;2023-07-29T04:04:58;1.10;;;1.00;;
56670;SDS011;42545;50.054;8.306;2023-07-29T04:07:24;1.20;;;1.10;;
56670;SDS011;42545;50.054;8.306;2023-07-29T04:09:51;1.13;;;1.02;;
56670;SDS011;42545;50.054;8.306;2023-07-29T04:12:18;0.80;;;0.80;;
56670;SDS011;42545;50.054;8.306;2023-07-29T04:14:48;1.00;;;1.00;;
56670;SDS011;42545;50.054;8.306;2023-07-29T04:17:15;1.25;;;1.15;;
56670;SDS011;42545;50.054;8.306;2023-07-29T04:19:42;1.15;;;1.05;;
56670;SDS011;42545;50.054;8.306;2023-07-29T04:22:09;1.08;;;0.98;;
56670;SDS011;42545;50.054;8.306;2023-07-29T04:24:35;0.90;;;0.90;;
56670;SDS011;42545;50.054;8.306;2023-07-29T04:27:03;0.90;;;0.90;;
56670;SDS011;42545;50.054;8.306;2023-07-29T04:29:30;1.00;;;1.00;;
56670;SDS011;42545;50.054;8.306;2023-07-29T04:31:58;1.05;;;0.98;;
56670;SDS011;42545;50.054;8.306;2023-07-29T04:34:26;1.30;;;1.20;;
56670;SDS011;42545;50.054;8.306;2023-07-29T04:36:53;1.45;;;1.27;;
56670;SDS011;42545;50.054;8.306;2023-07-29T04:39:19;1.10;;;1.00;;
56670;SDS011;42545;50.054;8.306;2023-07-29T04:41:46;1.35;;;1.25;;
56670;SDS011;42545;50.054;8.306;2023-07-29T04:44:13;1.15;;;1.10;;
56670;SDS011;42545;50.054;8.306;2023-07-29T04:46:40;1.35;;;1.20;;
56670;SDS011;42545;50.054;8.306;2023-07-29T04:49:09;1.10;;;1.00;;
56670;SDS011;42545;50.054;8.306;2023-07-29T04:51:35;2.17;;;1.70;;
56670;SDS011;42545;50.054;8.306;2023-07-29T04:54:03;1.50;;;1.40;;
56670;SDS011;42545;50.054;8.306;2023-07-29T04:56:29;1.45;;;1.35;;
56670;SDS011;42545;50.054;8.306;2023-07-29T04:58:56;1.40;;;1.30;;
56670;SDS011;42545;50.054;8.306;2023-07-29T05:01:23;1.88;;;1.33;;
56670;SDS011;42545;50.054;8.306;2023-07-29T05:03:50;1.50;;;1.40;;
56670;SDS011;42545;50.054;8.306;2023-07-29T05:06:18;1.63;;;1.52;;
56670;SDS011;42545;50.054;8.306;2023-07-29T05:08:45;1.30;;;1.20;;
56670;SDS011;42545;50.054;8.306;2023-07-29T05:11:12;1.20;;;1.10;;
56670;SDS011;42545;50.054;8.306;2023-07-29T05:13:39;1.67;;;1.58;;
56670;SDS011;42545;50.054;8.306;2023-07-29T05:16:05;1.30;;;1.20;;
56670;SDS011;42545;50.054;8.306;2023-07-29T05:18:33;1.40;;;1.30;;
56670;SDS011;42545;50.054;8.306;2023-07-29T05:21:00;1.40;;;1.30;;
56670;SDS011;42545;50.054;8.306;2023-07-29T05:23:29;1.40;;;1.30;;
56670;SDS011;42545;50.054;8.306;2023-07-29T05:25:56;1.60;;;1.50;;
56670;SDS011;42545;50.054;8.306;2023-07-29T05:28:22;1.50;;;1.40;;
56670;SDS011;42545;50.054;8.306;2023-07-29T05:30:49;1.40;;;1.30;;
56670;SDS011;42545;50.054;8.306;2023-07-29T05:33:16;1.60;;;1.50;;
56670;SDS011;42545;50.054;8.306;2023-07-29T05:35:43;1.38;;;1.27;;
56670;SDS011;42545;50.054;8.306;2023-07-29T05:38:12;1.23;;;1.13;;
56670;SDS011;42545;50.054;8.306;2023-07-29T05:40:40;1.80;;;1.70;;
56670;SDS011;42545;50.054;8.306;2023-07-29T05:43:07;1.65;;;1.52;;
56670;SDS011;42545;50.054;8.306;2023-07-29T05:45:34;2.05;;;1.85;;
56670;SDS011;42545;50.054;8.306;2023-07-29T05:48:01;2.22;;;2.03;;
56670;SDS011;42545;50.054;8.306;2023-07-29T05:50:28;2.30;;;2.10;;
56670;SDS011;42545;50.054;8.306;2023-07-29T05:52:55;3.58;;;2.67;;
56670;SDS011;42545;50.054;8.306;2023-07-29T05:55:22;2.50;;;2.30;;
56670;SDS011;42545;50.054;8.306;2023-07-29T05:57:50;2.42;;;2.22;;
56670;SDS011;42545;50.054;8.306;2023-07-29T06:00:18;1.80;;;1.70;;
56670;SDS011;42545;50.054;8.306;2023-07-29T06:02:45;2.30;;;2.10;;
56670;SDS011;42545;50.054;8.306;2023-07-29T06:05:12;2.38;;;2.17;;
56670;SDS011;42545;50.054;8.306;2023-07-29T06:07:39;3.00;;;2.58;;
56670;SDS011;42545;50.054;8.306;2023-07-29T06:10:09;4.10;;;3.22;;
56670;SDS011;42545;50.054;8.306;2023-07-29T06:12:36;2.95;;;2.70;;
56670;SDS011;42545;50.054;8.306;2023-07-29T06:15:05;2.90;;;2.60;;
56670;SDS011;42545;50.054;8.306;2023-07-29T06:17:33;2.47;;;2.28;;
56670;SDS011;42545;50.054;8.306;2023-07-29T06:19:59;2.38;;;2.10;;
56670;SDS011;42545;50.054;8.306;2023-07-29T06:22:26;2.67;;;2.45;;
56670;SDS011;42545;50.054;8.306;2023-07-29T06:24:53;2.38;;;1.98;;
56670;SDS011;42545;50.054;8.306;2023-07-29T06:27:20;2.30;;;2.10;;
56670;SDS011;42545;50.054;8.306;2023-07-29T06:29:47;2.10;;;1.80;;
56670;SDS011;42545;50.054;8.306;2023-07-29T06:32:15;1.63;;;1.52;;
56670;SDS011;42545;50.054;8.306;2023-07-29T06:34:41;1.80;;;1.65;;
56670;SDS011;42545;50.054;8.306;2023-07-29T06:37:08;2.17;;;1.60;;
56670;SDS011;42545;50.054;8.306;2023-07-29T06:39:35;1.40;;;1.30;;
56670;SDS011;42545;50.054;8.306;2023-07-29T06:42:02;1.48;;;1.38;;
56670;SDS011;42545;50.054;8.306;2023-07-29T06:44:29;1.30;;;1.20;;
56670;SDS011;42545;50.054;8.306;2023-07-29T06:46:57;1.20;;;1.10;;
56670;SDS011;42545;50.054;8.306;2023-07-29T06:49:25;1.10;;;1.00;;
56670;SDS011;42545;50.054;8.306;2023-07-29T06:51:52;0.90;;;0.90;;
56670;SDS011;42545;50.054;8.306;2023-07-29T06:54:19;1.20;;;1.10;;
56670;SDS011;42545;50.054;8.306;2023-07-29T06:56:51;0.95;;;0.95;;
56670;SDS011;42545;50.054;8.306;2023-07-29T06:59:17;0.70;;;0.70;;
56670;SDS011;42545;50.054;8.306;2023-07-29T07:01:44;1.20;;;1.10;;
56670;SDS011;42545;50.054;8.306;2023-07-29T07:04:11;0.90;;;0.90;;
56670;SDS011;42545;50.054;8.306;2023-07-29T07:06:39;1.20;;;1.10;;
56670;SDS011;42545;50.054;8.306;2023-07-29T07:09:06;0.90;;;0.90;;
56670;SDS011;42545;50.054;8.306;2023-07-29T07:11:33;1.00;;;1.00;;
56670;SDS011;42545;50.054;8.306;2023-07-29T07:14:00;0.90;;;0.90;;
56670;SDS011;42545;50.054;8.306;2023-07-29T07:16:27;1.17;;;1.08;;
56670;SDS011;42545;50.054;8.306;2023-07-29T07:18:56;1.20;;;1.00;;
56670;SDS011;42545;50.054;8.306;2023-07-29T07:21:23;1.35;;;1.17;;
56670;SDS011;42545;50.054;8.306;2023-07-29T07:23:52;0.80;;;0.80;;
56670;SDS011;42545;50.054;8.306;2023-07-29T07:26:19;0.70;;;0.70;;
56670;SDS011;42545;50.054;8.306;2023-07-29T07:28:45;0.80;;;0.80;;
56670;SDS011;42545;50.054;8.306;2023-07-29T07:31:12;0.70;;;0.70;;
56670;SDS011;42545;50.054;8.306;2023-07-29T07:33:41;0.77;;;0.77;;
56670;SDS011;42545;50.054;8.306;2023-07-29T07:36:08;1.17;;;1.00;;
56670;SDS011;42545;50.054;8.306;2023-07-29T07:38:35;1.30;;;1.20;;
56670;SDS011;42545;50.054;8.306;2023-07-29T07:41:03;1.38;;;1.25;;
56670;SDS011;42545;50.054;8.306;2023-07-29T07:43:30;1.42;;;1.20;;
56670;SDS011;42545;50.054;8.306;2023-07-29T07:45:59;1.10;;;1.00;;
56670;SDS011;42545;50.054;8.306;2023-07-29T07:48:28;2.30;;;1.55;;
56670;SDS011;42545;50.054;8.306;2023-07-29T07:50:54;1.83;;;1.73;;
56670;SDS011;42545;50.054;8.306;2023-07-29T07:53:21;1.60;;;1.50;;
56670;SDS011;42545;50.054;8.306;2023-07-29T07:55:50;2.20;;;1.95;;
56670;SDS011;42545;50.054;8.306;2023-07-29T07:58:19;2.03;;;1.67;;
56670;SDS011;42545;50.054;8.306;2023-07-29T08:00:46;3.00;;;2.20;;
56670;SDS011;42545;50.054;8.306;2023-07-29T08:03:12;2.88;;;2.58;;
56670;SDS011;42545;50.054;8.306;2023-07-29T08:05:39;3.40;;;2.55;;
56670;SDS011;42545;50.054;8.306;2023-07-29T08:08:06;2.75;;;2.45;;
56670;SDS011;42545;50.054;8.306;2023-07-29T08:10:33;3.50;;;3.00;;
56670;SDS011;42545;50.054;8.306;2023-07-29T08:13:00;3.42;;;3.00;;
56670;SDS011;42545;50.054;8.306;2023-07-29T08:15:29;2.72;;;2.47;;
56670;SDS011;42545;50.054;8.306;2023-07-29T08:17:55;4.57;;;3.70;;
56670;SDS011;42545;50.054;8.306;2023-07-29T08:20:22;4.60;;;3.75;;
56670;SDS011;42545;50.054;8.306;2023-07-29T08:22:49;4.25;;;3.38;;
56670;SDS011;42545;50.054;8.306;2023-07-29T08:25:16;3.25;;;2.90;;
56670;SDS011;42545;50.054;8.306;2023-07-29T08:27:43;3.58;;;3.10;;
56670;SDS011;42545;50.054;8.306;2023-07-29T08:30:10;4.93;;;3.70;;
56670;SDS011;42545;50.054;8.306;2023-07-29T08:32:38;4.47;;;3.17;;
56670;SDS011;42545;50.054;8.306;2023-07-29T08:35:06;4.50;;;3.40;;
56670;SDS011;42545;50.054;8.306;2023-07-29T08:37:34;5.45;;;4.72;;
56670;SDS011;42545;50.054;8.306;2023-07-29T08:40:00;4.43;;;3.92;;
56670;SDS011;42545;50.054;8.306;2023-07-29T08:42:28;3.65;;;3.35;;
56670;SDS011;42545;50.054;8.306;2023-07-29T08:44:58;3.25;;;2.95;;
56670;SDS011;42545;50.054;8.306;2023-07-29T08:47:32;3.63;;;3.30;;
56670;SDS011;42545;50.054;8.306;2023-07-29T08:50:00;3.75;;;3.45;;
56670;SDS011;42545;50.054;8.306;2023-07-29T08:52:29;6.10;;;5.20;;
56670;SDS011;42545;50.054;8.306;2023-07-29T08:54:59;7.95;;;6.75;;
56670;SDS011;42545;50.054;8.306;2023-07-29T08:57:26;9.05;;;6.50;;
56670;SDS011;42545;50.054;8.306;2023-07-29T08:59:53;7.90;;;6.28;;
56670;SDS011;42545;50.054;8.306;2023-07-29T09:02:21;5.35;;;4.80;;
56670;SDS011;42545;50.054;8.306;2023-07-29T09:04:48;4.75;;;4.28;;
56670;SDS011;42545;50.054;8.306;2023-07-29T09:07:17;4.57;;;4.18;;
56670;SDS011;42545;50.054;8.306;2023-07-29T09:09:44;5.32;;;4.72;;
56670;SDS011;42545;50.054;8.306;2023-07-29T09:12:12;4.63;;;4.10;;
56670;SDS011;42545;50.054;8.306;2023-07-29T09:14:39;4.15;;;3.78;;
56670;SDS011;42545;50.054;8.306;2023-07-29T09:17:06;4.00;;;3.70;;
56670;SDS011;42545;50.054;8.306;2023-07-29T09:19:34;3.60;;;3.30;;
56670;SDS011;42545;50.054;8.306;2023-07-29T09:22:01;3.38;;;3.08;;
56670;SDS011;42545;50.054;8.306;2023-07-29T09:24:31;3.55;;;2.83;;
56670;SDS011;42545;50.054;8.306;2023-07-29T09:26:59;2.78;;;2.58;;
56670;SDS011;42545;50.054;8.306;2023-07-29T09:29:27;2.60;;;2.40;;
56670;SDS011;42545;50.054;8.306;2023-07-29T09:34:45;2.63;;;2.40;;
56670;SDS011;42545;50.054;8.306;2023-07-29T09:37:15;2.53;;;2.33;;
56670;SDS011;42545;50.054;8.306;2023-07-29T09:39:45;3.08;;;2.40;;
56670;SDS011;42545;50.054;8.306;2023-07-29T09:42:16;2.50;;;2.30;;
56670;SDS011;42545;50.054;8.306;2023-07-29T09:44:43;2.30;;;2.10;;
56670;SDS011;42545;50.054;8.306;2023-07-29T09:47:18;2.17;;;1.98;;
56670;SDS011;42545;50.054;8.306;2023-07-29T09:49:45;2.20;;;2.00;;
56670;SDS011;42545;50.054;8.306;2023-07-29T09:52:13;1.60;;;1.50;;
56670;SDS011;42545;50.054;8.306;2023-07-29T09:54:42;2.15;;;1.90;;
56670;SDS011;42545;50.054;8.306;2023-07-29T09:57:10;1.75;;;1.65;;
56670;SDS011;42545;50.054;8.306;2023-07-29T09:59:37;1.63;;;1.50;;
56670;SDS011;42545;50.054;8.306;2023-07-29T10:02:05;1.73;;;1.63;;
56670;SDS011;42545;50.054;8.306;2023-07-29T10:04:39;2.08;;;1.50;;
56670;SDS011;42545;50.054;8.306;2023-07-29T10:07:08;1.40;;;1.30;;
56670;SDS011;42545;50.054;8.306;2023-07-29T10:09:36;2.55;;;1.55;;
56670;SDS011;42545;50.054;8.306;2023-07-29T10:12:04;1.30;;;1.20;;
56670;SDS011;42545;50.054;8.306;2023-07-29T10:14:35;1.40;;;1.30;;
56670;SDS011;42545;50.054;8.306;2023-07-29T10:17:05;7.25;;;2.60;;
56670;SDS011;42545;50.054;8.306;2023-07-29T10:19:32;1.77;;;1.63;;
56670;SDS011;42545;50.054;8.306;2023-07-29T10:21:59;2.03;;;1.40;;
56670;SDS011;42545;50.054;8.306;2023-07-29T10:24:29;1.60;;;1.50;;
56670;SDS011;42545;50.054;8.306;2023-07-29T10:29:26;1.50;;;1.40;;
56670;SDS011;42545;50.054;8.306;2023-07-29T10:31:58;1.50;;;1.40;;
56670;SDS011;42545;50.054;8.306;2023-07-29T10:34:29;2.20;;;1.98;;
56670;SDS011;42545;50.054;8.306;2023-07-29T10:36:56;1.85;;;1.70;;
56670;SDS011;42545;50.054;8.306;2023-07-29T10:39:24;2.78;;;1.70;;
56670;SDS011;42545;50.054;8.306;2023-07-29T10:41:56;1.55;;;1.45;;
56670;SDS011;42545;50.054;8.306;2023-07-29T10:47:17;1.52;;;1.42;;
56670;SDS011;42545;50.054;8.306;2023-07-29T10:52:27;1.42;;;1.33;;
56670;SDS011;42545;50.054;8.306;2023-07-29T10:54:56;1.30;;;1.20;;
56670;SDS011;42545;50.054;8.306;2023-07-29T10:57:31;1.40;;;1.30;;
56670;SDS011;42545;50.054;8.306;2023-07-29T10:59:59;1.67;;;1.38;;
56670;SDS011;42545;50.054;8.306;2023-07-29T11:02:31;1.60;;;1.20;;
56670;SDS011;42545;50.054;8.306;2023-07-29T11:05:00;1.75;;;1.42;;
56670;SDS011;42545;50.054;8.306;2023-07-29T11:07:32;1.67;;;1.40;;
56670;SDS011;42545;50.054;8.306;2023-07-29T11:10:11;1.52;;;1.30;;
56670;SDS011;42545;50.054;8.306;2023-07-29T11:12:40;1.85;;;1.63;;
56670;SDS011;42545;50.054;8.306;2023-07-29T11:15:14;1.90;;;1.40;;
56670;SDS011;42545;50.054;8.306;2023-07-29T11:17:45;2.35;;;1.40;;
56670;SDS011;42545;50.054;8.306;2023-07-29T11:20:13;1.52;;;1.30;;
56670;SDS011;42545;50.054;8.306;2023-07-29T11:22:41;1.50;;;1.40;;
56670;SDS011;42545;50.054;8.306;2023-07-29T11:25:09;1.48;;;1.38;;
56670;SDS011;42545;50.054;8.306;2023-07-29T11:27:37;2.10;;;1.70;;
56670;SDS011;42545;50.054;8.306;2023-07-29T11:30:05;1.90;;;1.70;;
56670;SDS011;42545;50.054;8.306;2023-07-29T11:32:35;2.05;;;1.58;;
56670;SDS011;42545;50.054;8.306;2023-07-29T11:35:05;2.72;;;1.67;;
56670;SDS011;42545;50.054;8.306;2023-07-29T11:37:34;2.50;;;1.50;;
56670;SDS011;42545;50.054;8.306;2023-07-29T11:40:02;1.58;;;1.48;;
56670;SDS011;42545;50.054;8.306;2023-07-29T11:42:31;1.55;;;1.40;;
56670;SDS011;42545;50.054;8.306;2023-07-29T11:44:58;1.95;;;1.67;;
56670;SDS011;42545;50.054;8.306;2023-07-29T11:47:25;2.25;;;1.58;;
56670;SDS011;42545;50.054;8.306;2023-07-29T11:49:52;1.45;;;1.30;;
56670;SDS011;42545;50.054;8.306;2023-07-29T11:52:21;1.70;;;1.50;;
56670;SDS011;42545;50.054;8.306;2023-07-29T11:54:48;2.13;;;1.63;;
56670;SDS011;42545;50.054;8.306;2023-07-29T11:57:16;2.72;;;1.80;;
56670;SDS011;42545;50.054;8.306;2023-07-29T11:59:44;3.35;;;1.88;;
56670;SDS011;42545;50.054;8.306;2023-07-29T12:02:13;2.10;;;1.15;;
56670;SDS011;42545;50.054;8.306;2023-07-29T12:04:41;2.45;;;1.60;;
56670;SDS011;42545;50.054;8.306;2023-07-29T12:07:10;1.95;;;1.55;;
56670;SDS011;42545;50.054;8.306;2023-07-29T12:09:40;1.50;;;1.40;;
56670;SDS011;42545;50.054;8.306;2023-07-29T12:12:09;1.80;;;1.50;;
56670;SDS011;42545;50.054;8.306;2023-07-29T12:14:38;1.83;;;1.50;;
56670;SDS011;42545;50.054;8.306;2023-07-29T12:17:05;2.00;;;1.50;;
56670;SDS011;42545;50.054;8.306;2023-07-29T12:19:33;2.25;;;1.60;;
56670;SDS011;42545;50.054;8.306;2023-07-29T12:22:00;1.58;;;1.40;;
56670;SDS011;42545;50.054;8.306;2023-07-29T12:24:29;2.03;;;1.40;;
56670;SDS011;42545;50.054;8.306;2023-07-29T12:26:58;3.15;;;1.60;;
56670;SDS011;42545;50.054;8.306;2023-07-29T12:29:25;2.65;;;1.60;;
56670;SDS011;42545;50.054;8.306;2023-07-29T12:31:56;2.55;;;1.48;;
56670;SDS011;42545;50.054;8.306;2023-07-29T12:34:25;2.40;;;1.60;;
56670;SDS011;42545;50.054;8.306;2023-07-29T12:36:52;2.30;;;1.55;;
56670;SDS011;42545;50.054;8.306;2023-07-29T12:39:20;2.13;;;1.50;;
56670;SDS011;42545;50.054;8.306;2023-07-29T12:41:49;1.63;;;1.52;;
56670;SDS011;42545;50.054;8.306;2023-07-29T12:44:19;1.47;;;1.30;;
56670;SDS011;42545;50.054;8.306;2023-07-29T12:46:46;1.60;;;1.37;;
56670;SDS011;42545;50.054;8.306;2023-07-29T12:49:13;1.92;;;1.30;;
56670;SDS011;42545;50.054;8.306;2023-07-29T12:51:40;2.10;;;1.40;;
56670;SDS011;42545;50.054;8.306;2023-07-29T12:54:07;2.72;;;1.50;;
56670;SDS011;42545;50.054;8.306;2023-07-29T12:56:34;1.67;;;1.45;;
56670;SDS011;42545;50.054;8.306;2023-07-29T12:59:02;1.42;;;1.20;;
56670;SDS011;42545;50.054;8.306;2023-07-29T13:01:30;1.42;;;1.33;;
56670;SDS011;42545;50.054;8.306;2023-07-29T13:03:57;1.50;;;1.40;;
56670;SDS011;42545;50.054;8.306;2023-07-29T13:06:24;1.95;;;1.40;;
56670;SDS011;42545;50.054;8.306;2023-07-29T13:08:51;1.30;;;1.20;;
56670;SDS011;42545;50.054;8.306;2023-07-29T13:11:18;3.13;;;1.65;;
56670;SDS011;42545;50.054;8.306;2023-07-29T13:13:44;1.50;;;1.40;;
56670;SDS011;42545;50.054;8.306;2023-07-29T13:16:11;1.50;;;1.38;;
56670;SDS011;42545;50.054;8.306;2023-07-29T13:18:40;1.50;;;1.40;;
56670;SDS011;42545;50.054;8.306;2023-07-29T13:21:07;1.65;;;1.55;;
56670;SDS011;42545;50.054;8.306;2023-07-29T13:23:34;1.60;;;1.35;;
56670;SDS011;42545;50.054;8.306;2023-07-29T13:26:01;2.13;;;1.40;;
56670;SDS011;42545;50.054;8.306;2023-07-29T13:28:27;1.83;;;1.33;;
56670;SDS011;42545;50.054;8.306;2023-07-29T13:30:54;1.55;;;1.30;;
56670;SDS011;42545;50.054;8.306;2023-07-29T13:33:21;1.75;;;1.45;;
56670;SDS011;42545;50.054;8.306;2023-07-29T13:35:49;1.50;;;1.38;;
56670;SDS011;42545;50.054;8.306;2023-07-29T13:38:16;1.60;;;1.40;;
56670;SDS011;42545;50.054;8.306;2023-07-29T13:40:44;1.45;;;1.30;;
56670;SDS011;42545;50.054;8.306;2023-07-29T13:43:11;1.27;;;1.15;;
56670;SDS011;42545;50.054;8.306;2023-07-29T13:45:38;1.35;;;1.25;;
56670;SDS011;42545;50.054;8.306;2023-07-29T13:48:05;1.48;;;1.35;;
56670;SDS011;42545;50.054;8.306;2023-07-29T13:50:32;1.40;;;1.30;;
56670;SDS011;42545;50.054;8.306;2023-07-29T13:53:01;1.55;;;1.40;;
56670;SDS011;42545;50.054;8.306;2023-07-29T13:55:28;2.15;;;1.20;;
56670;SDS011;42545;50.054;8.306;2023-07-29T13:57:54;1.73;;;1.42;;
56670;SDS011;42545;50.054;8.306;2023-07-29T14:00:21;1.75;;;1.42;;
56670;SDS011;42545;50.054;8.306;2023-07-29T14:02:48;2.35;;;1.50;;
56670;SDS011;42545;50.054;8.306;2023-07-29T14:05:15;1.42;;;1.20;;
56670;SDS011;42545;50.054;8.306;2023-07-29T14:07:42;1.98;;;1.52;;
56670;SDS011;42545;50.054;8.306;2023-07-29T14:10:10;1.40;;;1.30;;
56670;SDS011;42545;50.054;8.306;2023-07-29T14:12:37;1.63;;;1.30;;
56670;SDS011;42545;50.054;8.306;2023-07-29T14:15:04;1.50;;;1.40;;
56670;SDS011;42545;50.054;8.306;2023-07-29T14:17:32;1.45;;;1.35;;
56670;SDS011;42545;50.054;8.306;2023-07-29T14:19:59;1.40;;;1.30;;
56670;SDS011;42545;50.054;8.306;2023-07-29T14:22:26;1.45;;;1.30;;
56670;SDS011;42545;50.054;8.306;2023-07-29T14:24:53;1.40;;;1.30;;
56670;SDS011;42545;50.054;8.306;2023-07-29T14:27:21;1.85;;;1.25;;
56670;SDS011;42545;50.054;8.306;2023-07-29T14:29:48;1.30;;;1.20;;
56670;SDS011;42545;50.054;8.306;2023-07-29T14:32:14;1.40;;;1.30;;
56670;SDS011;42545;50.054;8.306;2023-07-29T14:34:42;1.80;;;1.50;;
56670;SDS011;42545;50.054;8.306;2023-07-29T14:37:09;1.30;;;1.20;;
56670;SDS011;42545;50.054;8.306;2023-07-29T14:39:36;1.27;;;1.17;;
56670;SDS011;42545;50.054;8.306;2023-07-29T14:42:03;1.70;;;1.45;;
56670;SDS011;42545;50.054;8.306;2023-07-29T14:44:32;1.50;;;1.25;;
56670;SDS011;42545;50.054;8.306;2023-07-29T14:46:58;1.42;;;1.30;;
56670;SDS011;42545;50.054;8.306;2023-07-29T14:49:25;1.45;;;1.20;;
56670;SDS011;42545;50.054;8.306;2023-07-29T14:51:51;1.40;;;1.30;;
56670;SDS011;42545;50.054;8.306;2023-07-29T14:54:19;2.20;;;1.38;;
56670;SDS011;42545;50.054;8.306;2023-07-29T14:56:45;1.95;;;1.45;;
56670;SDS011;42545;50.054;8.306;2023-07-29T14:59:12;1.40;;;1.30;;
56670;SDS011;42545;50.054;8.306;2023-07-29T15:01:41;1.90;;;1.42;;
56670;SDS011;42545;50.054;8.306;2023-07-29T15:04:07;1.67;;;1.30;;